EWG39J ESGG-EDDL
Flight info
| Callsign | EWG39J |
|---|---|
| Flight time | N/A |
| Altitude | 32000 |
| Route | VADIN DCT LAPMA DCT RAXLU DCT ELSOB DCT KEGAB DCT DENOL T851 HALME |
| Aircraft | A320/M-SDE3FGHIRWY/LB1 |
Departure
| Time | 2026-05-06 15:41 |
|---|---|
| Airport | Göteborg Landvetter Airport (ESGG) |
Arrival
| Time | N/A |
|---|---|
| Airport | Düsseldorf Airport (EDDL) |
| Time | Latitude | Longitude | Altitude | Speed | Heading |
|---|---|---|---|---|---|
| 2026-05-06 15:21 | 57.66887 | 12.29426 | 516 ft | 0 kts | 116° |
| 2026-05-06 15:27 | 57.66887 | 12.29425 | 516 ft | 0 kts | 116° |
| 2026-05-06 15:32 | 57.66891 | 12.29411 | 516 ft | 2 kts | 114° |
| 2026-05-06 15:32 | 57.66897 | 12.29384 | 516 ft | 2 kts | 112° |
| 2026-05-06 15:32 | 57.66902 | 12.29355 | 516 ft | 2 kts | 104° |
| 2026-05-06 15:32 | 57.66906 | 12.29326 | 516 ft | 2 kts | 90° |
| 2026-05-06 15:33 | 57.66904 | 12.29297 | 516 ft | 2 kts | 60° |
| 2026-05-06 15:33 | 57.66896 | 12.29275 | 516 ft | 2 kts | 27° |
| 2026-05-06 15:33 | 57.66889 | 12.29269 | 516 ft | 0 kts | 28° |
| 2026-05-06 15:38 | 57.66926 | 12.29305 | 516 ft | 9 kts | 27° |
| 2026-05-06 15:38 | 57.66987 | 12.29284 | 516 ft | 14 kts | 297° |
| 2026-05-06 15:38 | 57.67024 | 12.29197 | 516 ft | 9 kts | 340° |
| 2026-05-06 15:38 | 57.67129 | 12.29264 | 516 ft | 20 kts | 26° |
| 2026-05-06 15:39 | 57.67268 | 12.29391 | 516 ft | 24 kts | 26° |
| 2026-05-06 15:39 | 57.67399 | 12.29471 | 516 ft | 16 kts | 335° |
| 2026-05-06 15:39 | 57.67448 | 12.29340 | 516 ft | 12 kts | 296° |
| 2026-05-06 15:39 | 57.67460 | 12.29267 | 516 ft | 0 kts | 272° |
| 2026-05-06 15:40 | 57.67453 | 12.29134 | 514 ft | 18 kts | 260° |
| 2026-05-06 15:40 | 57.67363 | 12.28964 | 515 ft | 24 kts | 207° |
| 2026-05-06 15:41 | 57.66974 | 12.28610 | 515 ft | 112 kts | 206° |
| 2026-05-06 15:41 | 57.66009 | 12.27740 | 511 ft | 191 kts | 210° |
| 2026-05-06 15:41 | 57.64743 | 12.26587 | 1327 ft | 207 kts | 208° |
| 2026-05-06 15:41 | 57.63431 | 12.25374 | 2469 ft | 216 kts | 208° |
| 2026-05-06 15:42 | 57.61986 | 12.24060 | 3197 ft | 246 kts | 206° |
| 2026-05-06 15:42 | 57.60342 | 12.22816 | 4285 ft | 259 kts | 195° |
| 2026-05-06 15:42 | 57.58558 | 12.22255 | 5218 ft | 260 kts | 184° |